sensor_id;sensor_type;location;lat;lon;timestamp;pressure;altitude;pressure_sealevel;temperature;humidity
57799;BME280;43626;53.866;30.298;2023-04-07T00:01:44;1025.1;;;10.5;52.1
57799;BME280;43626;53.866;30.298;2023-04-07T00:06:10;1025.1;;;10.5;52.3
57799;BME280;43626;53.866;30.298;2023-04-07T00:11:28;1025;;;10.5;52.4
57799;BME280;43626;53.866;30.298;2023-04-07T00:16:00;1025;;;10.5;52.4
57799;BME280;43626;53.866;30.298;2023-04-07T00:21:28;1025;;;10.5;52.5
57799;BME280;43626;53.866;30.298;2023-04-07T00:26:44;1025;;;10.5;52.6
57799;BME280;43626;53.866;30.298;2023-04-07T00:31:16;1025;;;10.5;52.5
57799;BME280;43626;53.866;30.298;2023-04-07T00:36:34;1025;;;10.4;52.6
57799;BME280;43626;53.866;30.298;2023-04-07T00:41:12;1025;;;10.4;52.5
57799;BME280;43626;53.866;30.298;2023-04-07T00:46:28;1025;;;10.4;52.6
57799;BME280;43626;53.866;30.298;2023-04-07T00:51:00;1025;;;10.4;52.6
57799;BME280;43626;53.866;30.298;2023-04-07T00:56:10;1025;;;10.4;52.7
57799;BME280;43626;53.866;30.298;2023-04-07T01:01:23;1025;;;10.4;52.7
57799;BME280;43626;53.866;30.298;2023-04-07T01:06:30;1025;;;10.4;52.7
57799;BME280;43626;53.866;30.298;2023-04-07T01:11:46;1025;;;10.4;52.8
57799;BME280;43626;53.866;30.298;2023-04-07T01:16:22;1025;;;10.3;52.9
57799;BME280;43626;53.866;30.298;2023-04-07T01:21:01;1025;;;10.3;53.1
57799;BME280;43626;53.866;30.298;2023-04-07T01:26:20;1025;;;10.3;53
57799;BME280;43626;53.866;30.298;2023-04-07T01:31:30;1025;;;10.3;53.1
57799;BME280;43626;53.866;30.298;2023-04-07T01:36:44;1025.1;;;10.3;53.1
57799;BME280;43626;53.866;30.298;2023-04-07T01:41:22;1025.1;;;10.2;53.2
57799;BME280;43626;53.866;30.298;2023-04-07T01:46:00;1025.1;;;10.2;53.3
57799;BME280;43626;53.866;30.298;2023-04-07T01:51:22;1025.1;;;10.2;53.3
57799;BME280;43626;53.866;30.298;2023-04-07T01:56:30;1025.1;;;10.1;53.4
57799;BME280;43626;53.866;30.298;2023-04-07T02:01:44;1025.1;;;10.1;53.6
57799;BME280;43626;53.866;30.298;2023-04-07T02:06:13;1025.1;;;10.1;53.6
57799;BME280;43626;53.866;30.298;2023-04-07T02:11:12;1025.2;;;10.1;53.6
57799;BME280;43626;53.866;30.298;2023-04-07T02:16:20;1025.2;;;10;53.8
57799;BME280;43626;53.866;30.298;2023-04-07T02:21:30;1025.2;;;10;53.9
57799;BME280;43626;53.866;30.298;2023-04-07T02:26:44;1025.2;;;10;53.9
57799;BME280;43626;53.866;30.298;2023-04-07T02:31:22;1025.2;;;10;53.9
57799;BME280;43626;53.866;30.298;2023-04-07T02:36:12;1025.2;;;10.1;53.9
57799;BME280;43626;53.866;30.298;2023-04-07T02:41:20;1025.3;;;10.1;53.8
57799;BME280;43626;53.866;30.298;2023-04-07T02:46:30;1025.3;;;10.1;53.9
57799;BME280;43626;53.866;30.298;2023-04-07T02:51:44;1025.3;;;10.2;53.8
57799;BME280;43626;53.866;30.298;2023-04-07T02:56:00;1025.4;;;10.2;53.8
57799;BME280;43626;53.866;30.298;2023-04-07T03:01:20;1025.4;;;10.2;53.7
57799;BME280;43626;53.866;30.298;2023-04-07T03:06:20;1025.5;;;10.2;53.8
57799;BME280;43626;53.866;30.298;2023-04-07T03:11:24;1025.5;;;10.2;53.9
57799;BME280;43626;53.866;30.298;2023-04-07T03:16:44;1025.5;;;10.1;54.2
57799;BME280;43626;53.866;30.298;2023-04-07T03:21:00;1025.5;;;10.2;54.4
57799;BME280;43626;53.866;30.298;2023-04-07T03:26:10;1025.6;;;10.2;54.3
57799;BME280;43626;53.866;30.298;2023-04-07T03:31:22;1025.6;;;10.2;54.3
57799;BME280;43626;53.866;30.298;2023-04-07T03:36:44;1025.7;;;10.2;54.3
57799;BME280;43626;53.866;30.298;2023-04-07T03:41:44;1025.7;;;10.2;54.4
57799;BME280;43626;53.866;30.298;2023-04-07T03:46:34;1025.7;;;10.2;54.4
57799;BME280;43626;53.866;30.298;2023-04-07T03:51:10;1025.7;;;10.2;54.3
57799;BME280;43626;53.866;30.298;2023-04-07T03:56:22;1025.8;;;10.3;54.3
57799;BME280;43626;53.866;30.298;2023-04-07T04:01:30;1025.8;;;10.3;54.2
57799;BME280;43626;53.866;30.298;2023-04-07T04:06:44;1025.8;;;10.3;54.2
57799;BME280;43626;53.866;30.298;2023-04-07T04:11:00;1025.8;;;10.2;54.2
57799;BME280;43626;53.866;30.298;2023-04-07T04:16:00;1025.8;;;10.2;54.4
57799;BME280;43626;53.866;30.298;2023-04-07T04:21:22;1025.9;;;10.2;54.5
57799;BME280;43626;53.866;30.298;2023-04-07T04:26:30;1025.9;;;10.3;54.4
57799;BME280;43626;53.866;30.298;2023-04-07T04:31:44;1026;;;10.3;54.5
57799;BME280;43626;53.866;30.298;2023-04-07T04:36:00;1026;;;10.4;54.5
57799;BME280;43626;53.866;30.298;2023-04-07T04:41:12;1026.1;;;10.4;54.6
57799;BME280;43626;53.866;30.298;2023-04-07T04:46:00;1026.1;;;10.4;54.8
57799;BME280;43626;53.866;30.298;2023-04-07T04:51:30;1026.2;;;10.4;54.7
57799;BME280;43626;53.866;30.298;2023-04-07T04:56:42;1026.2;;;10.5;54.7
57799;BME280;43626;53.866;30.298;2023-04-07T05:01:20;1026.2;;;10.5;54.2
57799;BME280;43626;53.866;30.298;2023-04-07T05:06:00;1026.3;;;10.5;53.9
57799;BME280;43626;53.866;30.298;2023-04-07T05:11:18;1026.3;;;10.5;53.9
57799;BME280;43626;53.866;30.298;2023-04-07T05:16:30;1026.3;;;10.6;53.9
57799;BME280;43626;53.866;30.298;2023-04-07T05:21:44;1026.3;;;10.6;53.7
57799;BME280;43626;53.866;30.298;2023-04-07T05:26:18;1026.4;;;10.6;53.5
57799;BME280;43626;53.866;30.298;2023-04-07T05:31:20;1026.4;;;10.6;53.5
57799;BME280;43626;53.866;30.298;2023-04-07T05:36:20;1026.4;;;10.6;53.4
57799;BME280;43626;53.866;30.298;2023-04-07T05:41:30;1026.5;;;10.6;53.5
57799;BME280;43626;53.866;30.298;2023-04-07T05:46:44;1026.5;;;10.7;53.5
57799;BME280;43626;53.866;30.298;2023-04-07T05:51:20;1026.5;;;10.7;53.5
57799;BME280;43626;53.866;30.298;2023-04-07T05:56:00;1026.5;;;10.7;53.4
57799;BME280;43626;53.866;30.298;2023-04-07T06:01:22;1026.6;;;10.8;53.4
57799;BME280;43626;53.866;30.298;2023-04-07T06:06:00;1026.6;;;10.8;53.1
57799;BME280;43626;53.866;30.298;2023-04-07T06:11:42;1026.6;;;10.7;53.6
57799;BME280;43626;53.866;30.298;2023-04-07T06:16:00;1026.7;;;10.7;54
57799;BME280;43626;53.866;30.298;2023-04-07T06:21:10;1026.7;;;10.6;54.5
57799;BME280;43626;53.866;30.298;2023-04-07T06:26:20;1026.7;;;10.6;55
57799;BME280;43626;53.866;30.298;2023-04-07T06:31:20;1026.7;;;10.7;55.4
57799;BME280;43626;53.866;30.298;2023-04-07T06:36:36;1026.7;;;10.7;55.1
57799;BME280;43626;53.866;30.298;2023-04-07T06:41:00;1026.7;;;10.7;55.3
57799;BME280;43626;53.866;30.298;2023-04-07T06:46:00;1026.8;;;10.8;55.4
57799;BME280;43626;53.866;30.298;2023-04-07T06:51:00;1026.8;;;10.8;55.2
57799;BME280;43626;53.866;30.298;2023-04-07T06:56:30;1026.9;;;11;55.1
57799;BME280;43626;53.866;30.298;2023-04-07T07:01:42;1026.8;;;11.1;55.1
57799;BME280;43626;53.866;30.298;2023-04-07T07:06:24;1026.8;;;11.3;54.5
57799;BME280;43626;53.866;30.298;2023-04-07T07:11:00;1026.9;;;11.3;53.9
57799;BME280;43626;53.866;30.298;2023-04-07T07:16:20;1026.9;;;11.3;54.2
57799;BME280;43626;53.866;30.298;2023-04-07T07:21:30;1026.9;;;11.2;54.2
57799;BME280;43626;53.866;30.298;2023-04-07T07:26:44;1027;;;11.3;54.2
57799;BME280;43626;53.866;30.298;2023-04-07T07:31:22;1027;;;11.4;54.1
57799;BME280;43626;53.866;30.298;2023-04-07T07:36:28;1027.1;;;11.5;54.2
57799;BME280;43626;53.866;30.298;2023-04-07T07:41:22;1027.2;;;11.6;53.7
57799;BME280;43626;53.866;30.298;2023-04-07T07:46:30;1027.2;;;11.5;53.6
57799;BME280;43626;53.866;30.298;2023-04-07T07:51:42;1027.2;;;11.5;53.5
57799;BME280;43626;53.866;30.298;2023-04-07T07:56:32;1027.2;;;11.6;53.8
57799;BME280;43626;53.866;30.298;2023-04-07T08:01:00;1027.3;;;11.6;53.8
57799;BME280;43626;53.866;30.298;2023-04-07T08:06:00;1027.3;;;11.7;54.2
57799;BME280;43626;53.866;30.298;2023-04-07T08:11:30;1027.3;;;11.8;54.2
57799;BME280;43626;53.866;30.298;2023-04-07T08:16:42;1027.2;;;11.9;54.2
57799;BME280;43626;53.866;30.298;2023-04-07T08:21:20;1027.2;;;12;54
57799;BME280;43626;53.866;30.298;2023-04-07T08:26:20;1027.3;;;12.1;53.4
57799;BME280;43626;53.866;30.298;2023-04-07T08:31:00;1027.3;;;12.2;52.8
57799;BME280;43626;53.866;30.298;2023-04-07T08:36:30;1027.3;;;12.2;52.8
57799;BME280;43626;53.866;30.298;2023-04-07T08:41:42;1027.4;;;12.3;52.2
57799;BME280;43626;53.866;30.298;2023-04-07T08:46:00;1027.4;;;12.4;51.5
57799;BME280;43626;53.866;30.298;2023-04-07T08:51:27;1027.5;;;12.5;51.3
57799;BME280;43626;53.866;30.298;2023-04-07T08:56:00;1027.5;;;12.5;51.4
57799;BME280;43626;53.866;30.298;2023-04-07T09:01:30;1027.5;;;12.5;52.1
57799;BME280;43626;53.866;30.298;2023-04-07T09:06:42;1027.5;;;12.6;52
57799;BME280;43626;53.866;30.298;2023-04-07T09:11:18;1027.5;;;12.6;51.7
57799;BME280;43626;53.866;30.298;2023-04-07T09:16:10;1027.5;;;12.6;51.8
57799;BME280;43626;53.866;30.298;2023-04-07T09:21:18;1027.6;;;12.6;51.8
57799;BME280;43626;53.866;30.298;2023-04-07T09:26:30;1027.6;;;12.6;51.6
57799;BME280;43626;53.866;30.298;2023-04-07T09:31:43;1027.6;;;12.6;51.6
57799;BME280;43626;53.866;30.298;2023-04-07T09:36:10;1027.6;;;12.6;51.5
57799;BME280;43626;53.866;30.298;2023-04-07T09:41:10;1027.6;;;12.6;51.7
57799;BME280;43626;53.866;30.298;2023-04-07T09:46:05;1027.6;;;12.6;51.6
57799;BME280;43626;53.866;30.298;2023-04-07T09:51:30;1027.7;;;12.5;52.6
57799;BME280;43626;53.866;30.298;2023-04-07T09:56:42;1027.7;;;12.4;55.3
57799;BME280;43626;53.866;30.298;2023-04-07T10:01:20;1027.7;;;12.4;57.5
57799;BME280;43626;53.866;30.298;2023-04-07T10:06:10;1027.7;;;12.4;57.7
57799;BME280;43626;53.866;30.298;2023-04-07T10:11:20;1027.8;;;12.5;57.8
57799;BME280;43626;53.866;30.298;2023-04-07T10:16:30;1027.8;;;12.5;58.4
57799;BME280;43626;53.866;30.298;2023-04-07T10:21:44;1027.8;;;12.5;58.9
57799;BME280;43626;53.866;30.298;2023-04-07T10:26:24;1027.8;;;12.4;58.9
57799;BME280;43626;53.866;30.298;2023-04-07T10:31:22;1027.9;;;12.4;59.2
57799;BME280;43626;53.866;30.298;2023-04-07T10:36:10;1027.9;;;12.3;59.5
57799;BME280;43626;53.866;30.298;2023-04-07T10:41:30;1027.9;;;12.3;60.1
57799;BME280;43626;53.866;30.298;2023-04-07T10:47:11;1027.9;;;12.3;60.2
57799;BME280;43626;53.866;30.298;2023-04-07T10:51:16;1028;;;12.2;60.5
57799;BME280;43626;53.866;30.298;2023-04-07T10:56:00;1028;;;12.2;60.3
57799;BME280;43626;53.866;30.298;2023-04-07T11:01:17;1028;;;11.9;61
57799;BME280;43626;53.866;30.298;2023-04-07T11:06:16;1028.1;;;11.8;62.1
57799;BME280;43626;53.866;30.298;2023-04-07T11:11:39;1028.2;;;11.8;62.7
57799;BME280;43626;53.866;30.298;2023-04-07T11:16:20;1028.2;;;11.8;63
57799;BME280;43626;53.866;30.298;2023-04-07T11:21:20;1028.2;;;11.8;63.3
57799;BME280;43626;53.866;30.298;2023-04-07T11:26:20;1028.2;;;11.8;63.6
57799;BME280;43626;53.866;30.298;2023-04-07T11:31:30;1028.3;;;11.8;64.2
57799;BME280;43626;53.866;30.298;2023-04-07T11:36:44;1028.2;;;11.8;64.7
57799;BME280;43626;53.866;30.298;2023-04-07T11:41:11;1028.2;;;11.8;64.8
57799;BME280;43626;53.866;30.298;2023-04-07T11:46:04;1028.2;;;11.7;64.9
57799;BME280;43626;53.866;30.298;2023-04-07T11:51:18;1028.2;;;11.7;65.4
57799;BME280;43626;53.866;30.298;2023-04-07T11:56:07;1028.3;;;11.6;65.6
57799;BME280;43626;53.866;30.298;2023-04-07T12:01:42;1028.3;;;11.6;65.5
57799;BME280;43626;53.866;30.298;2023-04-07T12:06:00;1028.3;;;11.5;65.7
57799;BME280;43626;53.866;30.298;2023-04-07T12:11:10;1028.3;;;11.6;65.9
57799;BME280;43626;53.866;30.298;2023-04-07T12:16:18;1028.3;;;11.6;65.7
57799;BME280;43626;53.866;30.298;2023-04-07T12:21:30;1028.3;;;11.7;65.7
57799;BME280;43626;53.866;30.298;2023-04-07T12:26:22;1028.4;;;11.6;65.6
57799;BME280;43626;53.866;30.298;2023-04-07T12:31:18;1028.4;;;11.6;65.7
57799;BME280;43626;53.866;30.298;2023-04-07T12:36:20;1028.4;;;11.3;66.5
57799;BME280;43626;53.866;30.298;2023-04-07T12:41:28;1028.5;;;11.2;67.5
57799;BME280;43626;53.866;30.298;2023-04-07T12:46:30;1028.5;;;11.1;68.4
57799;BME280;43626;53.866;30.298;2023-04-07T12:51:44;1028.5;;;11.1;68.7
57799;BME280;43626;53.866;30.298;2023-04-07T12:56:22;1028.5;;;11;68.9
57799;BME280;43626;53.866;30.298;2023-04-07T13:01:22;1028.5;;;11.1;68.3
57799;BME280;43626;53.866;30.298;2023-04-07T13:06:10;1028.6;;;11.2;68
57799;BME280;43626;53.866;30.298;2023-04-07T13:11:34;1028.6;;;11.3;67.6
57799;BME280;43626;53.866;30.298;2023-04-07T13:16:46;1028.6;;;11.4;67.2
57799;BME280;43626;53.866;30.298;2023-04-07T13:21:26;1028.6;;;11.5;66.8
57799;BME280;43626;53.866;30.298;2023-04-07T13:26:00;1028.6;;;11.6;66.5
57799;BME280;43626;53.866;30.298;2023-04-07T13:31:22;1028.6;;;11.7;66.3
57799;BME280;43626;53.866;30.298;2023-04-07T13:36:28;1028.6;;;11.7;66.3
57799;BME280;43626;53.866;30.298;2023-04-07T13:41:48;1028.6;;;11.8;66
57799;BME280;43626;53.866;30.298;2023-04-07T13:46:34;1028.6;;;11.9;65.8
57799;BME280;43626;53.866;30.298;2023-04-07T13:51:10;1028.6;;;11.9;65.4
57799;BME280;43626;53.866;30.298;2023-04-07T13:56:12;1028.7;;;11.9;65.9
57799;BME280;43626;53.866;30.298;2023-04-07T14:01:34;1028.7;;;12;65.8
57799;BME280;43626;53.866;30.298;2023-04-07T14:06:46;1028.7;;;12.1;65.5
57799;BME280;43626;53.866;30.298;2023-04-07T14:11:31;1028.7;;;12.1;65.5
57799;BME280;43626;53.866;30.298;2023-04-07T14:16:10;1028.7;;;12.1;65.5
57799;BME280;43626;53.866;30.298;2023-04-07T14:21:20;1028.8;;;11.9;65.8
57799;BME280;43626;53.866;30.298;2023-04-07T14:26:34;1028.8;;;11.8;66.2
57799;BME280;43626;53.866;30.298;2023-04-07T14:31:46;1028.7;;;11.8;66.7
57799;BME280;43626;53.866;30.298;2023-04-07T14:36:34;1028.7;;;11.8;67
57799;BME280;43626;53.866;30.298;2023-04-07T14:41:00;1028.7;;;11.8;67
57799;BME280;43626;53.866;30.298;2023-04-07T14:46:20;1028.7;;;11.8;67
57799;BME280;43626;53.866;30.298;2023-04-07T14:51:34;1028.7;;;11.8;66.8
57799;BME280;43626;53.866;30.298;2023-04-07T14:56:48;1028.6;;;11.8;66.7
57799;BME280;43626;53.866;30.298;2023-04-07T15:01:34;1028.6;;;11.9;66.6
57799;BME280;43626;53.866;30.298;2023-04-07T15:06:22;1028.7;;;11.9;66.4
57799;BME280;43626;53.866;30.298;2023-04-07T15:11:22;1028.7;;;11.9;66.4
57799;BME280;43626;53.866;30.298;2023-04-07T15:16:34;1028.7;;;11.8;66.5
57799;BME280;43626;53.866;30.298;2023-04-07T15:21:46;1028.7;;;11.9;66.6
57799;BME280;43626;53.866;30.298;2023-04-07T15:26:28;1028.7;;;11.9;66.6
57799;BME280;43626;53.866;30.298;2023-04-07T15:31:10;1028.8;;;11.8;66.8
57799;BME280;43626;53.866;30.298;2023-04-07T15:36:00;1028.8;;;11.8;66.8
57799;BME280;43626;53.866;30.298;2023-04-07T15:41:32;1028.8;;;11.8;66.8
57799;BME280;43626;53.866;30.298;2023-04-07T15:46:48;1028.9;;;11.7;66.8
57799;BME280;43626;53.866;30.298;2023-04-07T15:51:34;1028.9;;;11.7;66.9
57799;BME280;43626;53.866;30.298;2023-04-07T15:56:00;1029;;;11.7;66.7
57799;BME280;43626;53.866;30.298;2023-04-07T16:01:10;1029;;;11.7;66.8
57799;BME280;43626;53.866;30.298;2023-04-07T16:06:34;1029;;;11.6;66.7
57799;BME280;43626;53.866;30.298;2023-04-07T16:11:48;1029;;;11.6;66.7
57799;BME280;43626;53.866;30.298;2023-04-07T16:16:32;1029.1;;;11.6;66.7
57799;BME280;43626;53.866;30.298;2023-04-07T16:21:30;1029.1;;;11.5;67
57799;BME280;43626;53.866;30.298;2023-04-07T16:26:00;1029.1;;;11.5;67.2
57799;BME280;43626;53.866;30.298;2023-04-07T16:31:34;1029.2;;;11.5;67.2
57799;BME280;43626;53.866;30.298;2023-04-07T16:36:46;1029.2;;;11.6;69.4
57799;BME280;43626;53.866;30.298;2023-04-07T16:41:34;1029.2;;;11.6;67.4
57799;BME280;43626;53.866;30.298;2023-04-07T16:46:10;1029.3;;;11.6;67.4
57799;BME280;43626;53.866;30.298;2023-04-07T16:51:22;1029.4;;;11.6;67.3
57799;BME280;43626;53.866;30.298;2023-04-07T16:56:28;1029.4;;;11.6;67.3
57799;BME280;43626;53.866;30.298;2023-04-07T17:01:48;1029.4;;;11.5;67.3
57799;BME280;43626;53.866;30.298;2023-04-07T17:06:48;1029.4;;;11.5;67.2
57799;BME280;43626;53.866;30.298;2023-04-07T17:11:02;1029.4;;;11.4;67.1
57799;BME280;43626;53.866;30.298;2023-04-07T17:16:22;1029.4;;;11.4;67.1
57799;BME280;43626;53.866;30.298;2023-04-07T17:21:00;1029.5;;;11.3;67.1
57799;BME280;43626;53.866;30.298;2023-04-07T17:26:45;1029.5;;;11.3;67.1
57799;BME280;43626;53.866;30.298;2023-04-07T17:31:32;1029.5;;;11.3;67
57799;BME280;43626;53.866;30.298;2023-04-07T17:36:00;1029.6;;;11.3;66.9
57799;BME280;43626;53.866;30.298;2023-04-07T17:41:22;1029.6;;;11.3;66.8
57799;BME280;43626;53.866;30.298;2023-04-07T17:46:28;1029.6;;;11.3;66.9
57799;BME280;43626;53.866;30.298;2023-04-07T17:51:46;1029.7;;;11.4;67.1
57799;BME280;43626;53.866;30.298;2023-04-07T17:56:32;1029.7;;;11.3;67.3
57799;BME280;43626;53.866;30.298;2023-04-07T18:01:12;1029.7;;;11.3;67.3
57799;BME280;43626;53.866;30.298;2023-04-07T18:06:13;1029.7;;;11.2;67.6
57799;BME280;43626;53.866;30.298;2023-04-07T18:11:30;1029.7;;;11.2;67.9
57799;BME280;43626;53.866;30.298;2023-04-07T18:16:44;1029.8;;;11.1;68.2
57799;BME280;43626;53.866;30.298;2023-04-07T18:21:30;1029.9;;;11.1;68.5
57799;BME280;43626;53.866;30.298;2023-04-07T18:26:01;1029.9;;;11;68.6
57799;BME280;43626;53.866;30.298;2023-04-07T18:31:38;1029.9;;;11;68.9
57799;BME280;43626;53.866;30.298;2023-04-07T18:36:32;1030;;;11;68.9
57799;BME280;43626;53.866;30.298;2023-04-07T18:41:46;1030;;;11;68.9
57799;BME280;43626;53.866;30.298;2023-04-07T18:46:32;1030;;;10.9;68.9
57799;BME280;43626;53.866;30.298;2023-04-07T18:51:12;1030;;;10.9;68.9
57799;BME280;43626;53.866;30.298;2023-04-07T18:56:22;1030;;;10.9;69
57799;BME280;43626;53.866;30.298;2023-04-07T19:01:32;1030.1;;;10.9;69.1
57799;BME280;43626;53.866;30.298;2023-04-07T19:06:48;1030.1;;;10.9;69.3
57799;BME280;43626;53.866;30.298;2023-04-07T19:11:30;1030.1;;;10.9;69.7
57799;BME280;43626;53.866;30.298;2023-04-07T19:16:10;1030.1;;;10.8;69.7
57799;BME280;43626;53.866;30.298;2023-04-07T19:21:22;1030.1;;;10.8;69.9
57799;BME280;43626;53.866;30.298;2023-04-07T19:26:32;1030.1;;;10.8;69.9
57799;BME280;43626;53.866;30.298;2023-04-07T19:31:46;1030.1;;;10.9;69.7
57799;BME280;43626;53.866;30.298;2023-04-07T19:36:32;1030.2;;;10.9;69.6
57799;BME280;43626;53.866;30.298;2023-04-07T19:41:22;1030.1;;;10.9;69.5
57799;BME280;43626;53.866;30.298;2023-04-07T19:46:10;1030.1;;;10.9;69.3
57799;BME280;43626;53.866;30.298;2023-04-07T19:51:32;1030.1;;;10.9;69
57799;BME280;43626;53.866;30.298;2023-04-07T19:56:44;1030.1;;;10.9;68.6
57799;BME280;43626;53.866;30.298;2023-04-07T20:01:46;1030.1;;;11;68.3
57799;BME280;43626;53.866;30.298;2023-04-07T20:06:22;1030.1;;;11;67.5
57799;BME280;43626;53.866;30.298;2023-04-07T20:11:10;1030.2;;;11;67.1
57799;BME280;43626;53.866;30.298;2023-04-07T20:16:32;1030.2;;;11;66.8
57799;BME280;43626;53.866;30.298;2023-04-07T20:21:46;1030.2;;;11;66.6
57799;BME280;43626;53.866;30.298;2023-04-07T20:26:32;1030.2;;;11;66.4
57799;BME280;43626;53.866;30.298;2023-04-07T20:31:10;1030.2;;;11.1;66.3
57799;BME280;43626;53.866;30.298;2023-04-07T20:36:36;1030.2;;;11;65.9
57799;BME280;43626;53.866;30.298;2023-04-07T20:41:30;1030.2;;;11;65.6
57799;BME280;43626;53.866;30.298;2023-04-07T20:46:44;1030.2;;;11;65.5
57799;BME280;43626;53.866;30.298;2023-04-07T20:51:02;1030.3;;;11;65.4
57799;BME280;43626;53.866;30.298;2023-04-07T20:56:10;1030.3;;;11;65.1
57799;BME280;43626;53.866;30.298;2023-04-07T21:01:38;1030.3;;;10.9;64.6
57799;BME280;43626;53.866;30.298;2023-04-07T21:06:46;1030.3;;;10.9;64.1
57799;BME280;43626;53.866;30.298;2023-04-07T21:11:46;1030.3;;;10.8;63.9
57799;BME280;43626;53.866;30.298;2023-04-07T21:16:30;1030.2;;;10.8;63.4
57799;BME280;43626;53.866;30.298;2023-04-07T21:21:10;1030.2;;;10.8;63.7
57799;BME280;43626;53.866;30.298;2023-04-07T21:26:22;1030.2;;;10.8;63.9
57799;BME280;43626;53.866;30.298;2023-04-07T21:31:32;1030.2;;;10.8;63.6
57799;BME280;43626;53.866;30.298;2023-04-07T21:36:32;1030.2;;;10.8;63.9
57799;BME280;43626;53.866;30.298;2023-04-07T21:41:26;1030.2;;;10.8;64
57799;BME280;43626;53.866;30.298;2023-04-07T21:46:10;1030.2;;;10.9;63.7
57799;BME280;43626;53.866;30.298;2023-04-07T21:51:22;1030.2;;;10.9;63.5
57799;BME280;43626;53.866;30.298;2023-04-07T21:56:10;1030.2;;;10.8;63.3
57799;BME280;43626;53.866;30.298;2023-04-07T22:01:46;1030.2;;;10.8;63
57799;BME280;43626;53.866;30.298;2023-04-07T22:06:46;1030.3;;;10.7;63.2
57799;BME280;43626;53.866;30.298;2023-04-07T22:11:00;1030.3;;;10.7;63
57799;BME280;43626;53.866;30.298;2023-04-07T22:16:22;1030.3;;;10.7;63.5
57799;BME280;43626;53.866;30.298;2023-04-07T22:21:26;1030.3;;;10.7;63.6
57799;BME280;43626;53.866;30.298;2023-04-07T22:26:32;1030.3;;;10.8;63.7
57799;BME280;43626;53.866;30.298;2023-04-07T22:31:46;1030.3;;;10.8;63.4
57799;BME280;43626;53.866;30.298;2023-04-07T22:36:26;1030.3;;;10.8;63.3
57799;BME280;43626;53.866;30.298;2023-04-07T22:41:00;1030.3;;;10.8;63.3
57799;BME280;43626;53.866;30.298;2023-04-07T22:46:22;1030.3;;;10.8;63.2
57799;BME280;43626;53.866;30.298;2023-04-07T22:51:32;1030.2;;;10.9;63.2
57799;BME280;43626;53.866;30.298;2023-04-07T22:56:46;1030.3;;;10.9;62.9
57799;BME280;43626;53.866;30.298;2023-04-07T23:01:00;1030.3;;;10.9;62.7
57799;BME280;43626;53.866;30.298;2023-04-07T23:06:00;1030.3;;;10.9;62.9
57799;BME280;43626;53.866;30.298;2023-04-07T23:11:00;1030.2;;;10.9;63
57799;BME280;43626;53.866;30.298;2023-04-07T23:16:32;1030.2;;;10.9;63
57799;BME280;43626;53.866;30.298;2023-04-07T23:21:44;1030.1;;;10.9;63.2
57799;BME280;43626;53.866;30.298;2023-04-07T23:26:12;1030.1;;;10.9;63.5
57799;BME280;43626;53.866;30.298;2023-04-07T23:31:22;1030.1;;;10.8;63.8
57799;BME280;43626;53.866;30.298;2023-04-07T23:36:10;1030.1;;;10.8;64
57799;BME280;43626;53.866;30.298;2023-04-07T23:41:30;1030.1;;;10.7;63.9
57799;BME280;43626;53.866;30.298;2023-04-07T23:46:46;1030;;;10.6;64
57799;BME280;43626;53.866;30.298;2023-04-07T23:51:22;1030;;;10.6;64.2
57799;BME280;43626;53.866;30.298;2023-04-07T23:56:22;1030;;;10.5;64.5
